Moiese, Montana
Current Conditions -  °F | °C
As of 5:02 AM on Sunday 21 Dec 2014 (Local Time) from KMSO Reporting Station
Haze Haze  
Wind Chill: 27°   Ceiling: 3400
Heat Index: 32°   Visibility: 2mi
Dew Point: 32°   Wind: 5mph
Humidity: 100%   Direction: 290°WNW
Pressure: 29.51"   Gusts: NA
Location:  47.4253°N, 114.208°W
Report Text: KMSO 211202Z AUTO 29004KT 2SM UP BR OVC034 00/00 A2951 RMK AO2 P0001 T00000000 TSNO $
Loading
Personal Weather Stations






























Interactive Weather Map New forecast layout! Learn more

10-Day Weather Forecast

Advertisements
Track Severe Weather on mobile